createdAt,value
2018-04-23T00:00:06.132Z,0.00
2018-04-23T00:01:06.303Z,0.00
2018-04-23T00:02:06.414Z,0.00
2018-04-23T00:03:06.553Z,0.00
2018-04-23T00:04:06.711Z,0.00
2018-04-23T00:05:06.856Z,0.00
2018-04-23T00:06:06.992Z,0.00
2018-04-23T00:07:07.196Z,0.00
2018-04-23T00:08:07.229Z,0.00
2018-04-23T00:09:07.366Z,0.00
2018-04-23T00:10:07.508Z,0.00
2018-04-23T00:11:07.653Z,0.00
2018-04-23T00:12:07.814Z,0.00
2018-04-23T00:13:07.951Z,0.00
2018-04-23T00:14:08.086Z,0.00
2018-04-23T00:15:08.231Z,0.00
2018-04-23T00:16:08.385Z,0.00
2018-04-23T00:17:08.530Z,0.00
2018-04-23T00:18:08.668Z,0.00
2018-04-23T00:19:08.833Z,0.00
2018-04-23T00:20:08.958Z,0.00
2018-04-23T00:21:09.100Z,0.00
2018-04-23T00:22:09.264Z,0.00
2018-04-23T00:23:09.449Z,0.00
2018-04-23T00:24:09.541Z,0.00
2018-04-23T00:25:09.690Z,0.00
2018-04-23T00:26:09.843Z,0.00
2018-04-23T00:27:09.968Z,0.00
2018-04-23T00:28:10.109Z,0.00
2018-04-23T00:29:10.285Z,0.00
2018-04-23T00:30:10.418Z,0.00
2018-04-23T00:31:10.558Z,0.00
2018-04-23T00:32:10.709Z,0.00
2018-04-23T00:33:10.857Z,0.00
2018-04-23T00:34:10.993Z,0.00
2018-04-23T00:35:11.139Z,0.00
2018-04-23T00:36:11.277Z,0.00
2018-04-23T00:37:11.418Z,0.00
2018-04-23T00:38:11.561Z,0.00
2018-04-23T00:39:11.697Z,0.00
2018-04-23T00:40:12.503Z,0.00
2018-04-23T00:41:12.049Z,0.00
2018-04-23T00:42:12.197Z,0.00
2018-04-23T00:43:12.339Z,0.00
2018-04-23T00:44:12.478Z,0.00
2018-04-23T00:45:12.619Z,0.00
2018-04-23T00:46:12.761Z,0.00
2018-04-23T00:47:12.899Z,0.00
2018-04-23T00:48:13.040Z,0.00
2018-04-23T00:49:13.183Z,0.00
2018-04-23T00:50:13.315Z,0.00
2018-04-23T00:51:13.455Z,0.00
2018-04-23T00:52:13.604Z,0.00
2018-04-23T00:53:13.745Z,0.00
2018-04-23T00:54:13.884Z,0.00
2018-04-23T00:55:14.025Z,0.00
2018-04-23T00:56:14.168Z,0.00
2018-04-23T00:57:14.311Z,0.00
2018-04-23T00:58:14.455Z,0.00
2018-04-23T00:59:14.599Z,0.00
2018-04-23T01:00:14.740Z,0.00
2018-04-23T01:01:14.875Z,0.00
2018-04-23T01:02:15.010Z,0.00
2018-04-23T01:03:15.155Z,0.00
2018-04-23T01:04:15.296Z,0.00
2018-04-23T01:05:15.441Z,0.00
2018-04-23T01:06:15.598Z,0.00
2018-04-23T01:07:15.730Z,0.00
2018-04-23T01:08:15.877Z,0.00
2018-04-23T01:09:16.017Z,0.00
2018-04-23T01:10:16.181Z,0.00
2018-04-23T01:11:16.313Z,0.00
2018-04-23T01:12:16.453Z,0.00
2018-04-23T01:13:16.601Z,0.00
2018-04-23T01:14:16.741Z,0.00
2018-04-23T01:15:16.882Z,0.00
2018-04-23T01:16:17.025Z,0.00
2018-04-23T01:17:17.174Z,0.00
2018-04-23T01:18:17.331Z,0.00
2018-04-23T01:19:17.474Z,0.00
2018-04-23T01:20:17.616Z,0.00
2018-04-23T01:21:17.771Z,0.00
2018-04-23T01:22:17.907Z,0.00
2018-04-23T01:23:18.046Z,0.00
2018-04-23T01:24:18.201Z,0.00
2018-04-23T01:25:18.328Z,0.00
2018-04-23T01:26:18.465Z,0.00
2018-04-23T01:27:18.605Z,0.00
2018-04-23T01:28:18.742Z,0.00
2018-04-23T01:29:18.917Z,0.00
2018-04-23T01:30:19.059Z,0.00
2018-04-23T01:31:19.198Z,0.00
2018-04-23T01:32:19.339Z,0.00
2018-04-23T01:33:19.553Z,0.00
2018-04-23T01:34:19.563Z,0.00
2018-04-23T01:35:19.702Z,0.00
2018-04-23T01:36:19.840Z,0.00
2018-04-23T01:37:19.999Z,0.00
2018-04-23T01:38:20.144Z,0.00
2018-04-23T01:39:20.287Z,0.00
2018-04-23T01:40:20.435Z,0.00
2018-04-23T01:41:20.590Z,0.00
2018-04-23T01:42:20.718Z,0.00
2018-04-23T01:43:20.864Z,0.00
2018-04-23T01:44:20.999Z,0.00
2018-04-23T01:45:21.148Z,0.00
2018-04-23T01:46:21.288Z,0.00
2018-04-23T01:47:21.434Z,0.00
2018-04-23T01:48:21.572Z,0.00
2018-04-23T01:49:21.718Z,0.00
2018-04-23T01:50:21.856Z,0.00
2018-04-23T01:51:21.995Z,0.00
2018-04-23T01:52:22.141Z,0.00
2018-04-23T01:53:22.278Z,0.00
2018-04-23T01:54:22.416Z,0.00
2018-04-23T01:55:22.554Z,0.00
2018-04-23T01:56:22.693Z,0.00
2018-04-23T01:57:22.833Z,0.00
2018-04-23T01:58:22.967Z,0.00
2018-04-23T01:59:23.110Z,0.00
2018-04-23T02:00:23.250Z,0.00
2018-04-23T02:01:23.384Z,0.00
2018-04-23T02:02:23.529Z,0.00
2018-04-23T02:03:23.672Z,0.00
2018-04-23T02:04:23.809Z,0.00
2018-04-23T02:05:23.949Z,0.00
2018-04-23T02:06:24.088Z,0.00
2018-04-23T02:07:24.233Z,0.00
2018-04-23T02:08:24.369Z,0.00
2018-04-23T02:09:24.514Z,0.00
2018-04-23T02:10:24.652Z,0.00
2018-04-23T02:11:24.796Z,0.00
2018-04-23T02:12:24.939Z,0.00
2018-04-23T02:13:25.081Z,0.00
2018-04-23T02:14:25.234Z,0.00
2018-04-23T02:15:25.367Z,0.00
2018-04-23T02:16:25.507Z,0.00
2018-04-23T02:17:25.708Z,0.00
2018-04-23T02:18:25.856Z,0.00
2018-04-23T02:19:25.996Z,0.00
2018-04-23T02:20:26.153Z,0.00
2018-04-23T02:21:26.287Z,0.00
2018-04-23T02:22:26.428Z,0.00
2018-04-23T02:23:26.585Z,0.00
2018-04-23T02:24:26.719Z,0.00
2018-04-23T02:25:26.859Z,0.00
2018-04-23T02:26:27.023Z,0.00
2018-04-23T02:27:27.197Z,0.00
2018-04-23T02:28:27.340Z,0.00
2018-04-23T02:29:27.481Z,0.00
2018-04-23T02:30:27.618Z,0.00
2018-04-23T02:31:27.781Z,0.00
2018-04-23T02:32:27.921Z,0.00
2018-04-23T02:33:28.061Z,0.00
2018-04-23T02:34:28.204Z,0.00
2018-04-23T02:35:28.343Z,0.00
2018-04-23T02:36:28.479Z,0.00
2018-04-23T02:37:28.629Z,0.00
2018-04-23T02:38:28.760Z,0.00
2018-04-23T02:39:28.926Z,0.00
2018-04-23T02:40:29.061Z,0.00
2018-04-23T02:41:29.213Z,0.00
2018-04-23T02:42:29.354Z,0.00
2018-04-23T02:43:29.517Z,0.00
2018-04-23T02:44:29.684Z,0.00
2018-04-23T02:45:29.825Z,0.00
2018-04-23T02:46:29.969Z,0.00
2018-04-23T02:47:30.164Z,0.00
2018-04-23T02:48:30.251Z,0.00
2018-04-23T02:49:30.394Z,0.00
2018-04-23T02:50:30.539Z,0.00
2018-04-23T02:51:30.679Z,0.00
2018-04-23T02:52:30.816Z,0.00
2018-04-23T02:53:31.011Z,0.00
2018-04-23T02:54:31.149Z,0.00
2018-04-23T02:55:31.299Z,0.00
2018-04-23T02:56:31.450Z,0.00
2018-04-23T02:57:31.593Z,0.00
2018-04-23T02:58:31.734Z,0.00
2018-04-23T02:59:31.876Z,0.00
2018-04-23T03:00:32.014Z,0.00
2018-04-23T03:01:32.156Z,0.00
2018-04-23T03:02:32.295Z,0.00
2018-04-23T03:03:32.450Z,0.00
2018-04-23T03:04:32.588Z,0.00
2018-04-23T03:05:32.722Z,0.00
2018-04-23T03:06:32.967Z,0.00
2018-04-23T03:07:32.982Z,0.00
2018-04-23T03:08:33.197Z,0.00
2018-04-23T03:09:33.207Z,0.00
2018-04-23T03:10:33.351Z,0.00
2018-04-23T03:11:33.496Z,0.00
2018-04-23T03:12:33.635Z,0.00
2018-04-23T03:13:33.777Z,0.00
2018-04-23T03:14:33.911Z,0.00
2018-04-23T03:15:34.055Z,0.00
2018-04-23T03:16:34.196Z,0.00
2018-04-23T03:17:34.337Z,0.00
2018-04-23T03:18:34.475Z,0.00
2018-04-23T03:19:34.616Z,0.00
2018-04-23T03:20:34.761Z,0.00
2018-04-23T03:21:34.904Z,0.00
2018-04-23T03:22:35.053Z,0.00
2018-04-23T03:23:35.193Z,0.00
2018-04-23T03:24:35.327Z,0.00
2018-04-23T03:25:35.464Z,0.00
2018-04-23T03:26:35.611Z,0.00
2018-04-23T03:27:35.750Z,0.00
2018-04-23T03:28:35.900Z,0.00
2018-04-23T03:29:36.037Z,0.00
2018-04-23T03:30:36.179Z,0.00
2018-04-23T03:31:36.323Z,0.00
2018-04-23T03:32:36.487Z,0.00
2018-04-23T03:33:36.630Z,0.00
2018-04-23T03:34:36.775Z,0.00
2018-04-23T03:35:36.917Z,0.00
2018-04-23T03:36:37.078Z,0.00
2018-04-23T03:37:37.214Z,0.00
2018-04-23T03:38:37.356Z,0.00
2018-04-23T03:39:37.500Z,0.00
2018-04-23T03:40:37.662Z,0.00
2018-04-23T03:41:37.798Z,0.00
2018-04-23T03:42:37.943Z,0.00
2018-04-23T03:43:38.090Z,0.00
2018-04-23T03:44:38.227Z,0.00
2018-04-23T03:45:38.369Z,0.00
2018-04-23T03:46:38.511Z,0.00
2018-04-23T03:47:38.665Z,0.00
2018-04-23T03:48:38.801Z,0.00
2018-04-23T03:49:38.942Z,0.00
2018-04-23T03:50:39.083Z,0.00
2018-04-23T03:51:39.258Z,0.00
2018-04-23T03:52:39.380Z,0.00
2018-04-23T03:53:39.528Z,4.00
2018-04-23T03:54:39.667Z,4.00
2018-04-23T03:55:39.810Z,0.00
2018-04-23T03:56:39.952Z,4.00
2018-04-23T03:57:40.142Z,4.00
2018-04-23T03:58:40.226Z,4.00
2018-04-23T03:59:40.389Z,8.00
2018-04-23T04:00:40.528Z,8.00
2018-04-23T04:01:40.673Z,8.00
2018-04-23T04:02:40.828Z,8.00
2018-04-23T04:03:40.966Z,8.00
2018-04-23T04:04:41.112Z,12.00
2018-04-23T04:05:41.247Z,8.00
2018-04-23T04:06:41.398Z,12.00
2018-04-23T04:07:41.555Z,16.00
2018-04-23T04:08:41.691Z,16.00
2018-04-23T04:09:41.837Z,20.00
2018-04-23T04:10:41.971Z,28.00
2018-04-23T04:11:42.113Z,32.00
2018-04-23T04:12:42.256Z,36.00
2018-04-23T04:13:42.397Z,44.00
2018-04-23T04:14:42.543Z,44.00
2018-04-23T04:15:42.682Z,48.00
2018-04-23T04:16:42.826Z,52.00
2018-04-23T04:17:42.970Z,60.00
2018-04-23T04:18:43.111Z,68.00
2018-04-23T04:19:43.259Z,72.00
2018-04-23T04:20:43.400Z,72.00
2018-04-23T04:21:43.538Z,72.00
2018-04-23T04:22:43.679Z,72.00
2018-04-23T04:23:43.810Z,76.00
2018-04-23T04:24:43.968Z,92.00
2018-04-23T04:25:44.099Z,100.00
2018-04-23T04:26:44.232Z,108.00
2018-04-23T04:27:44.372Z,112.00
2018-04-23T04:28:44.501Z,116.00
2018-04-23T04:29:44.663Z,112.00
2018-04-23T04:30:44.803Z,108.00
2018-04-23T04:31:44.944Z,104.00
2018-04-23T04:32:45.085Z,100.00
2018-04-23T04:33:45.228Z,104.00
2018-04-23T04:34:45.368Z,116.00
2018-04-23T04:35:45.560Z,124.00
2018-04-23T04:36:45.642Z,132.00
2018-04-23T04:37:45.789Z,140.00
2018-04-23T04:38:45.938Z,148.00
2018-04-23T04:39:46.077Z,160.00
2018-04-23T04:40:46.217Z,172.00
2018-04-23T04:41:46.361Z,188.00
2018-04-23T04:42:46.508Z,208.00
2018-04-23T04:43:46.649Z,232.00
2018-04-23T04:44:46.785Z,256.00
2018-04-23T04:45:46.938Z,276.00
2018-04-23T04:46:47.080Z,292.00
2018-04-23T04:47:47.224Z,300.00
2018-04-23T04:48:47.377Z,316.00
2018-04-23T04:49:47.531Z,336.00
2018-04-23T04:50:47.655Z,344.00
2018-04-23T04:51:47.794Z,340.00
2018-04-23T04:52:47.937Z,336.00
2018-04-23T04:53:48.115Z,336.00
2018-04-23T04:54:48.244Z,348.00
2018-04-23T04:55:48.376Z,364.00
2018-04-23T04:56:48.515Z,376.00
2018-04-23T04:57:48.675Z,384.00
2018-04-23T04:58:48.816Z,388.00
2018-04-23T04:59:48.956Z,380.00
2018-04-23T05:00:49.092Z,360.00
2018-04-23T05:01:49.238Z,344.00
2018-04-23T05:02:49.378Z,324.00
2018-04-23T05:03:49.527Z,312.00
2018-04-23T05:04:49.663Z,304.00
2018-04-23T05:05:49.831Z,316.00
2018-04-23T05:06:49.969Z,340.00
2018-04-23T05:07:50.108Z,360.00
2018-04-23T05:08:50.247Z,384.00
2018-04-23T05:09:50.389Z,408.00
2018-04-23T05:10:50.545Z,452.00
2018-04-23T05:11:50.718Z,516.00
2018-04-23T05:12:50.823Z,588.00
2018-04-23T05:13:50.962Z,652.00
2018-04-23T05:14:51.100Z,676.00
2018-04-23T05:15:51.248Z,680.00
2018-04-23T05:16:51.387Z,660.00
2018-04-23T05:17:51.532Z,652.00
2018-04-23T05:18:51.683Z,652.00
2018-04-23T05:19:51.819Z,656.00
2018-04-23T05:20:51.969Z,668.00
2018-04-23T05:21:52.112Z,676.00
2018-04-23T05:22:52.246Z,664.00
2018-04-23T05:23:52.480Z,628.00
2018-04-23T05:24:52.530Z,584.00
2018-04-23T05:25:52.665Z,556.00
2018-04-23T05:26:52.803Z,528.00
2018-04-23T05:27:53.565Z,500.00
2018-04-23T05:28:53.111Z,488.00
2018-04-23T05:29:53.298Z,496.00
2018-04-23T05:30:53.401Z,532.00
2018-04-23T05:31:53.539Z,576.00
2018-04-23T05:32:53.682Z,608.00
2018-04-23T05:33:53.827Z,628.00
2018-04-23T05:34:53.968Z,608.00
2018-04-23T05:35:54.235Z,580.00
2018-04-23T05:36:54.271Z,544.00
2018-04-23T05:37:54.411Z,516.00
2018-04-23T05:38:54.553Z,504.00
2018-04-23T05:39:54.716Z,508.00
2018-04-23T05:40:54.843Z,516.00
2018-04-23T05:41:54.988Z,524.00
2018-04-23T05:42:55.137Z,536.00
2018-04-23T05:43:55.322Z,556.00
2018-04-23T05:44:55.424Z,580.00
2018-04-23T05:45:55.600Z,588.00
2018-04-23T05:46:55.749Z,592.00
2018-04-23T05:47:55.897Z,616.00
2018-04-23T05:48:56.054Z,644.00
2018-04-23T05:49:56.199Z,688.00
2018-04-23T05:50:56.327Z,748.00
2018-04-23T05:51:56.513Z,788.00
2018-04-23T05:52:56.636Z,808.00
2018-04-23T05:53:56.771Z,824.00
2018-04-23T05:54:57.611Z,796.00
2018-04-23T05:55:57.106Z,760.00
2018-04-23T05:56:57.251Z,724.00
2018-04-23T05:57:57.394Z,696.00
2018-04-23T05:58:57.536Z,676.00
2018-04-23T05:59:57.681Z,656.00
2018-04-23T06:00:57.818Z,620.00
2018-04-23T06:01:57.980Z,568.00
2018-04-23T06:02:58.109Z,548.00
2018-04-23T06:03:58.244Z,544.00
2018-04-23T06:04:58.399Z,556.00
2018-04-23T06:05:58.556Z,568.00
2018-04-23T06:06:58.690Z,576.00
2018-04-23T06:07:58.845Z,540.00
2018-04-23T06:08:58.994Z,528.00
2018-04-23T06:09:59.212Z,532.00
2018-04-23T06:10:59.219Z,528.00
2018-04-23T06:11:59.356Z,504.00
2018-04-23T06:12:59.495Z,480.00
2018-04-23T06:13:59.639Z,456.00
2018-04-23T06:14:59.777Z,440.00
2018-04-23T06:15:59.954Z,436.00
2018-04-23T06:17:00.083Z,424.00
2018-04-23T06:18:00.222Z,420.00
2018-04-23T06:19:00.366Z,420.00
2018-04-23T06:20:00.578Z,436.00
2018-04-23T06:21:00.666Z,448.00
2018-04-23T06:22:00.804Z,464.00
2018-04-23T06:23:00.970Z,472.00
2018-04-23T06:24:01.105Z,464.00
2018-04-23T06:25:01.246Z,456.00
2018-04-23T06:26:01.384Z,452.00
2018-04-23T06:27:01.518Z,444.00
2018-04-23T06:28:01.660Z,440.00
2018-04-23T06:29:01.801Z,432.00
2018-04-23T06:30:01.976Z,444.00
2018-04-23T06:31:02.088Z,456.00
2018-04-23T06:32:02.227Z,472.00
2018-04-23T06:33:02.370Z,480.00
2018-04-23T06:34:02.510Z,492.00
2018-04-23T06:35:02.667Z,520.00
2018-04-23T06:36:02.807Z,560.00
2018-04-23T06:37:02.952Z,588.00
2018-04-23T06:38:03.083Z,608.00
2018-04-23T06:39:03.227Z,576.00
2018-04-23T06:40:03.367Z,544.00
2018-04-23T06:41:03.513Z,536.00
2018-04-23T06:42:03.660Z,564.00
2018-04-23T06:43:03.791Z,620.00
2018-04-23T06:44:03.931Z,672.00
2018-04-23T06:45:04.068Z,732.00
2018-04-23T06:46:04.210Z,796.00
2018-04-23T06:47:04.355Z,920.00
2018-04-23T06:48:04.497Z,1120.00
2018-04-23T06:49:04.640Z,1336.00
2018-04-23T06:50:04.778Z,1512.00
2018-04-23T06:51:04.917Z,1640.00
2018-04-23T06:52:05.066Z,1724.00
2018-04-23T06:53:05.205Z,1716.00
2018-04-23T06:54:05.353Z,1672.00
2018-04-23T06:55:05.495Z,1648.00
2018-04-23T06:56:05.625Z,1668.00
2018-04-23T06:57:05.777Z,1744.00
2018-04-23T06:58:05.917Z,1872.00
2018-04-23T06:59:06.063Z,2020.00
2018-04-23T07:00:06.191Z,2148.00
2018-04-23T07:01:06.332Z,2232.00
2018-04-23T07:02:06.474Z,2228.00
2018-04-23T07:03:06.611Z,2200.00
2018-04-23T07:04:06.771Z,2272.00
2018-04-23T07:05:06.939Z,2388.00
2018-04-23T07:06:07.054Z,2496.00
2018-04-23T07:07:07.221Z,2584.00
2018-04-23T07:08:07.351Z,2640.00
2018-04-23T07:09:07.579Z,2700.00
2018-04-23T07:10:07.625Z,2752.00
2018-04-23T07:11:07.755Z,2776.00
2018-04-23T07:12:07.897Z,2804.00
2018-04-23T07:13:08.034Z,2860.00
2018-04-23T07:14:08.217Z,2900.00
2018-04-23T07:15:08.336Z,3000.00
2018-04-23T07:16:08.477Z,3084.00
2018-04-23T07:17:08.617Z,3116.00
2018-04-23T07:18:08.771Z,3128.00
2018-04-23T07:19:08.905Z,3240.00
2018-04-23T07:20:09.046Z,3388.00
2018-04-23T07:21:09.192Z,3424.00
2018-04-23T07:22:09.371Z,3492.00
2018-04-23T07:23:09.484Z,3636.00
2018-04-23T07:24:09.625Z,3836.00
2018-04-23T07:25:09.764Z,4032.00
2018-04-23T07:26:09.900Z,4080.00
2018-04-23T07:27:10.038Z,4224.00
2018-04-23T07:28:10.192Z,4424.00
2018-04-23T07:29:10.354Z,4540.00
2018-04-23T07:30:10.484Z,4560.00
2018-04-23T07:31:10.622Z,4572.00
2018-04-23T07:32:10.780Z,4552.00
2018-04-23T07:33:10.918Z,4532.00
2018-04-23T07:34:11.054Z,4272.00
2018-04-23T07:35:11.205Z,4148.00
2018-04-23T07:36:11.346Z,4100.00
2018-04-23T07:37:11.483Z,4116.00
2018-04-23T07:38:11.621Z,4284.00
2018-04-23T07:39:11.753Z,4436.00
2018-04-23T07:40:11.882Z,4460.00
2018-04-23T07:41:12.045Z,4376.00
2018-04-23T07:42:12.176Z,4252.00
2018-04-23T07:43:12.321Z,4104.00
2018-04-23T07:44:12.462Z,3980.00
2018-04-23T07:45:12.607Z,3848.00
2018-04-23T07:46:12.748Z,3740.00
2018-04-23T07:47:12.895Z,3660.00
2018-04-23T07:48:13.035Z,3600.00
2018-04-23T07:49:13.172Z,3660.00
2018-04-23T07:50:13.318Z,3760.00
2018-04-23T07:51:13.465Z,3896.00
2018-04-23T07:52:13.604Z,4108.00
2018-04-23T07:53:13.793Z,4260.00
2018-04-23T07:54:13.940Z,4280.00
2018-04-23T07:55:14.055Z,4084.00
2018-04-23T07:56:14.189Z,3856.00
2018-04-23T07:57:14.341Z,3812.00
2018-04-23T07:58:14.476Z,3904.00
2018-04-23T07:59:14.617Z,4024.00
2018-04-23T08:00:14.765Z,4032.00
2018-04-23T08:01:14.900Z,3964.00
2018-04-23T08:02:15.067Z,3860.00
2018-04-23T08:03:15.249Z,3704.00
2018-04-23T08:04:15.386Z,3644.00
2018-04-23T08:05:15.536Z,3612.00
2018-04-23T08:06:15.677Z,3608.00
2018-04-23T08:07:15.819Z,3592.00
2018-04-23T08:08:15.961Z,3632.00
2018-04-23T08:09:16.105Z,3608.00
2018-04-23T08:10:16.242Z,3548.00
2018-04-23T08:11:16.391Z,3528.00
2018-04-23T08:12:16.543Z,3536.00
2018-04-23T08:13:16.685Z,3480.00
2018-04-23T08:14:16.824Z,3396.00
2018-04-23T08:15:16.962Z,3256.00
2018-04-23T08:16:17.104Z,3112.00
2018-04-23T08:17:17.256Z,2908.00
2018-04-23T08:18:17.395Z,2792.00
2018-04-23T08:19:17.543Z,2716.00
2018-04-23T08:20:17.676Z,2704.00
2018-04-23T08:21:17.826Z,2724.00
2018-04-23T08:22:17.983Z,2708.00
2018-04-23T08:23:18.145Z,2668.00
2018-04-23T08:24:18.277Z,2540.00
2018-04-23T08:25:18.422Z,2476.00
2018-04-23T08:26:18.560Z,2400.00
2018-04-23T08:27:18.732Z,2396.00
2018-04-23T08:28:18.870Z,2408.00
2018-04-23T08:29:19.012Z,2364.00
2018-04-23T08:30:19.180Z,2344.00
2018-04-23T08:31:19.324Z,2352.00
2018-04-23T08:32:19.465Z,2424.00
2018-04-23T08:33:19.608Z,2572.00
2018-04-23T08:34:19.754Z,2748.00
2018-04-23T08:35:19.894Z,2968.00
2018-04-23T08:36:20.037Z,3188.00
2018-04-23T08:37:20.177Z,3460.00
2018-04-23T08:38:20.328Z,3744.00
2018-04-23T08:39:20.476Z,4008.00
2018-04-23T08:40:20.615Z,4328.00
2018-04-23T08:41:20.758Z,4680.00
2018-04-23T08:42:20.932Z,5192.00
2018-04-23T08:43:21.043Z,5760.00
2018-04-23T08:44:21.245Z,6156.00
2018-04-23T08:45:21.391Z,6184.00
2018-04-23T08:46:21.550Z,5928.00
2018-04-23T08:47:21.689Z,5672.00
2018-04-23T08:48:21.836Z,5364.00
2018-04-23T08:49:21.972Z,5092.00
2018-04-23T08:50:22.132Z,4924.00
2018-04-23T08:51:22.260Z,4856.00
2018-04-23T08:52:22.399Z,4740.00
2018-04-23T08:53:22.552Z,4600.00
2018-04-23T08:54:22.699Z,4524.00
2018-04-23T08:55:22.837Z,4400.00
2018-04-23T08:56:23.029Z,4372.00
2018-04-23T08:57:23.188Z,4252.00
2018-04-23T08:58:23.320Z,4148.00
2018-04-23T08:59:23.466Z,4088.00
2018-04-23T09:00:23.608Z,4092.00
2018-04-23T09:01:23.820Z,4244.00
2018-04-23T09:02:23.906Z,4312.00
2018-04-23T09:03:24.045Z,4428.00
2018-04-23T09:04:24.189Z,4616.00
2018-04-23T09:05:24.330Z,4876.00
2018-04-23T09:06:24.475Z,5244.00
2018-04-23T09:07:24.613Z,5612.00
2018-04-23T09:08:24.764Z,5940.00
2018-04-23T09:09:24.908Z,6260.00
2018-04-23T09:10:25.047Z,6512.00
2018-04-23T09:11:25.196Z,6748.00
2018-04-23T09:12:25.327Z,6776.00
2018-04-23T09:13:25.477Z,6812.00
2018-04-23T09:14:25.620Z,6660.00
2018-04-23T09:15:25.790Z,6724.00
2018-04-23T09:16:25.926Z,6816.00
2018-04-23T09:17:26.073Z,7040.00
2018-04-23T09:18:26.213Z,7324.00
2018-04-23T09:19:26.352Z,7348.00
2018-04-23T09:20:26.505Z,7336.00
2018-04-23T09:21:26.639Z,7356.00
2018-04-23T09:22:26.787Z,7444.00
2018-04-23T09:23:27.610Z,7556.00
2018-04-23T09:24:27.034Z,7748.00
2018-04-23T09:25:27.170Z,8020.00
2018-04-23T09:26:27.311Z,8308.00
2018-04-23T09:27:27.496Z,8544.00
2018-04-23T09:28:27.592Z,8616.00
2018-04-23T09:29:27.735Z,8372.00
2018-04-23T09:30:27.886Z,8168.00
2018-04-23T09:31:28.034Z,7968.00
2018-04-23T09:32:28.174Z,7692.00
2018-04-23T09:33:28.311Z,7416.00
2018-04-23T09:34:28.451Z,7056.00
2018-04-23T09:35:28.592Z,6820.00
2018-04-23T09:36:28.739Z,6548.00
2018-04-23T09:37:28.874Z,6320.00
2018-04-23T09:38:29.019Z,6636.00
2018-04-23T09:39:29.169Z,6984.00
2018-04-23T09:40:29.315Z,7756.00
2018-04-23T09:41:29.445Z,7664.00
2018-04-23T09:42:29.591Z,8056.00
2018-04-23T09:43:29.733Z,8460.00
2018-04-23T09:44:29.906Z,8556.00
2018-04-23T09:45:30.016Z,8360.00
2018-04-23T09:46:30.161Z,7856.00
2018-04-23T09:47:30.300Z,7000.00
2018-04-23T09:48:30.441Z,7892.00
2018-04-23T09:49:30.579Z,8324.00
2018-04-23T09:50:30.724Z,8044.00
2018-04-23T09:51:30.861Z,7844.00
2018-04-23T09:52:31.041Z,7272.00
2018-04-23T09:53:31.177Z,7420.00
2018-04-23T09:54:31.317Z,8288.00
2018-04-23T09:55:31.482Z,8632.00
2018-04-23T09:56:31.618Z,9136.00
2018-04-23T09:57:31.764Z,8696.00
2018-04-23T09:58:31.928Z,7876.00
2018-04-23T09:59:32.086Z,7732.00
2018-04-23T10:00:32.206Z,7868.00
2018-04-23T10:01:32.346Z,7948.00
2018-04-23T10:02:32.521Z,8544.00
2018-04-23T10:03:32.629Z,9060.00
2018-04-23T10:04:32.778Z,8980.00
2018-04-23T10:05:32.924Z,9876.00
2018-04-23T10:06:33.066Z,10348.00
2018-04-23T10:07:33.202Z,10200.00
2018-04-23T10:08:33.350Z,9464.00
2018-04-23T10:09:33.488Z,8956.00
2018-04-23T10:10:33.656Z,9748.00
2018-04-23T10:11:33.799Z,10136.00
2018-04-23T10:12:33.942Z,10612.00
2018-04-23T10:13:34.083Z,11148.00
2018-04-23T10:14:34.256Z,10312.00
2018-04-23T10:15:34.385Z,9360.00
2018-04-23T10:16:34.530Z,9548.00
2018-04-23T10:17:34.678Z,11160.00
2018-04-23T10:18:34.873Z,10884.00
2018-04-23T10:19:34.981Z,10316.00
2018-04-23T10:20:35.126Z,10068.00
2018-04-23T10:21:35.266Z,11032.00
2018-04-23T10:22:35.407Z,8724.00
2018-04-23T10:23:35.543Z,8520.00
2018-04-23T10:24:35.722Z,9356.00
2018-04-23T10:25:35.853Z,8436.00
2018-04-23T10:26:36.008Z,7784.00
2018-04-23T10:27:36.157Z,7892.00
2018-04-23T10:28:36.302Z,7888.00
2018-04-23T10:29:36.482Z,7912.00
2018-04-23T10:30:36.617Z,10340.00
2018-04-23T10:31:36.758Z,11172.00
2018-04-23T10:32:36.900Z,11844.00
2018-04-23T10:33:37.043Z,11924.00
2018-04-23T10:34:37.194Z,9264.00
2018-04-23T10:35:37.334Z,9288.00
2018-04-23T10:36:37.479Z,10888.00
2018-04-23T10:37:37.625Z,10476.00
2018-04-23T10:38:37.764Z,9596.00
2018-04-23T10:39:37.909Z,8488.00
2018-04-23T10:40:38.053Z,10156.00
2018-04-23T10:41:38.197Z,24544.00
2018-04-23T10:42:38.359Z,8020.00
2018-04-23T10:43:38.492Z,8496.00
2018-04-23T10:44:38.638Z,8380.00
2018-04-23T10:45:38.776Z,7844.00
2018-04-23T10:46:38.916Z,9472.00
2018-04-23T10:47:39.061Z,14852.00
2018-04-23T10:48:39.201Z,21344.00
2018-04-23T10:49:39.351Z,11992.00
2018-04-23T10:50:39.497Z,11232.00
2018-04-23T10:51:39.634Z,12128.00
2018-04-23T10:52:39.788Z,10936.00
2018-04-23T10:53:39.933Z,7572.00
2018-04-23T10:54:40.079Z,6848.00
2018-04-23T10:55:40.226Z,8520.00
2018-04-23T10:56:40.361Z,5484.00
2018-04-23T10:57:40.522Z,4920.00
2018-04-23T10:58:40.663Z,5000.00
2018-04-23T10:59:40.816Z,5584.00
2018-04-23T11:00:40.960Z,6416.00
2018-04-23T11:01:41.102Z,7540.00
2018-04-23T11:02:41.266Z,8344.00
2018-04-23T11:03:41.408Z,9172.00
2018-04-23T11:04:41.558Z,7916.00
2018-04-23T11:05:41.700Z,6968.00
2018-04-23T11:06:41.847Z,5208.00
2018-04-23T11:07:41.986Z,4152.00
2018-04-23T11:08:42.129Z,3688.00
2018-04-23T11:09:42.335Z,3608.00
2018-04-23T11:10:42.436Z,3692.00
2018-04-23T11:11:42.560Z,3484.00
2018-04-23T11:12:42.716Z,3176.00
2018-04-23T11:13:42.853Z,3000.00
2018-04-23T11:14:43.026Z,3188.00
2018-04-23T11:15:43.170Z,3492.00
2018-04-23T11:16:43.312Z,3680.00
2018-04-23T11:17:43.458Z,4032.00
2018-04-23T11:18:43.649Z,4324.00
2018-04-23T11:19:43.776Z,4596.00
2018-04-23T11:20:43.910Z,4652.00
2018-04-23T11:21:44.063Z,4388.00
2018-04-23T11:22:44.224Z,4016.00
2018-04-23T11:23:44.366Z,3524.00
2018-04-23T11:24:44.553Z,3000.00
2018-04-23T11:25:44.651Z,3112.00
2018-04-23T11:26:44.795Z,3996.00
2018-04-23T11:27:44.935Z,5840.00
2018-04-23T11:28:45.066Z,11684.00
2018-04-23T11:29:45.206Z,9128.00
2018-04-23T11:30:45.355Z,4640.00
2018-04-23T11:31:45.519Z,6964.00
2018-04-23T11:32:45.742Z,5924.00
2018-04-23T11:33:45.763Z,3436.00
2018-04-23T11:34:45.925Z,2720.00
2018-04-23T11:35:46.063Z,2292.00
2018-04-23T11:36:46.206Z,2304.00
2018-04-23T11:37:46.347Z,2640.00
2018-04-23T11:38:46.542Z,3528.00
2018-04-23T11:39:46.629Z,5592.00
2018-04-23T11:40:46.777Z,8076.00
2018-04-23T11:41:46.923Z,14672.00
2018-04-23T11:42:47.061Z,14368.00
2018-04-23T11:43:47.216Z,15232.00
2018-04-23T11:44:47.359Z,15568.00
2018-04-23T11:45:47.505Z,15920.00
2018-04-23T11:46:47.698Z,16184.00
2018-04-23T11:47:47.843Z,16608.00
2018-04-23T11:48:47.980Z,16512.00
2018-04-23T11:49:48.145Z,15260.00
2018-04-23T11:50:48.332Z,17280.00
2018-04-23T11:51:48.470Z,15804.00
2018-04-23T11:52:48.609Z,13360.00
2018-04-23T11:53:48.762Z,12828.00
2018-04-23T11:54:48.954Z,12984.00
2018-04-23T11:55:49.087Z,13908.00
2018-04-23T11:56:49.222Z,16896.00
2018-04-23T11:57:49.377Z,16800.00
2018-04-23T11:58:49.517Z,17248.00
2018-04-23T11:59:49.660Z,18528.00
2018-04-23T12:00:49.803Z,18048.00
2018-04-23T12:01:49.978Z,17280.00
2018-04-23T12:02:50.117Z,15604.00
2018-04-23T12:03:50.264Z,15884.00
2018-04-23T12:04:50.428Z,15752.00
2018-04-23T12:05:50.569Z,16736.00
2018-04-23T12:06:50.716Z,15844.00
2018-04-23T12:07:50.857Z,15476.00
2018-04-23T12:08:51.020Z,15208.00
2018-04-23T12:09:51.171Z,16736.00
2018-04-23T12:10:51.317Z,17472.00
2018-04-23T12:11:51.450Z,17216.00
2018-04-23T12:12:51.605Z,16640.00
2018-04-23T12:13:51.752Z,16800.00
2018-04-23T12:14:51.903Z,17024.00
2018-04-23T12:15:52.053Z,15660.00
2018-04-23T12:16:52.246Z,15992.00
2018-04-23T12:17:52.373Z,17024.00
2018-04-23T12:18:52.522Z,16864.00
2018-04-23T12:19:52.660Z,17472.00
2018-04-23T12:20:52.813Z,18144.00
2018-04-23T12:21:52.965Z,16104.00
2018-04-23T12:22:53.108Z,14624.00
2018-04-23T12:23:53.269Z,12328.00
2018-04-23T12:24:53.420Z,7852.00
2018-04-23T12:25:53.561Z,6584.00
2018-04-23T12:26:53.712Z,6008.00
2018-04-23T12:27:53.862Z,5916.00
2018-04-23T12:28:54.003Z,6376.00
2018-04-23T12:29:54.158Z,6448.00
2018-04-23T12:30:54.303Z,6856.00
2018-04-23T12:31:54.441Z,7244.00
2018-04-23T12:32:54.602Z,10228.00